Terminal Aerodrome Forecast
Issued by NWS Topeka, KS

Home | Current Version | Previous Version | Text Only | Print | Product List | Glossary Off
Versions: 1 2 3 4 5 6 7 8 9 10 11 12

000
FTUS43 KTOP 250500
TAFTOP
TAF
KTOP 250528Z 2506/2606 00000KT P6SM SKC
     FM252000 19010KT P6SM SCT060 BKN100
     FM260300 34022G30KT P6SM SCT015 BKN050
      TEMPO 2603/2606 2SM -RASN BKN015=

USA.gov is the U.S. government's official web portal to all federal, state and local government web resources and services.